Time;durP1;ratioP1;P1;durP2;ratioP2;P2;SDS_P1;SDS_P2;PMS_P1;PMS_P2;Temp;Humidity;BMP_temperature;BMP_pressure;BME280_temperature;BME280_humidity;BME280_pressure;Samples;Min_cycle;Max_cycle;Signal;HPM_P1;HPM_P2
2023/10/17 00:00:39;;;;;;;;;2.75;2.00;;;;;8.48;60.33;100747.53;5104694;27;45480;-86
2023/10/17 00:03:11;;;;;;;;;2.00;2.00;;;;;8.54;60.74;100773.75;5105243;27;46128;-87
2023/10/17 00:05:36;;;;;;;;;2.25;2.25;;;;;8.54;60.33;100773.75;5104938;27;45315;-85
2023/10/17 00:08:04;;;;;;;;;4.25;3.00;;;;;8.16;60.60;100710.03;5106165;27;45313;-87
2023/10/17 00:10:35;;;;;;;;;2.00;2.00;;;;;8.34;60.77;100740.19;5106437;27;45393;-88
2023/10/17 00:15:52;;;;;;;;;4.50;4.50;;;;;8.43;61.36;100765.41;5069933;27;45407;-85
2023/10/17 00:18:20;;;;;;;;;2.00;2.00;;;;;8.27;60.93;100750.16;5082991;27;45442;-86
2023/10/17 00:20:46;;;;;;;;;1.00;1.00;;;;;7.99;61.80;100712.56;5084803;28;45427;-87
2023/10/17 00:23:15;;;;;;;;;1.50;1.50;;;;;7.97;61.99;100720.56;5088538;28;45480;-86
2023/10/17 00:25:45;;;;;;;;;5.75;2.00;;;;;8.26;61.53;100761.69;5101485;27;44998;-86
2023/10/17 00:28:11;;;;;;;;;2.25;2.25;;;;;7.99;61.90;100721.38;5106717;27;44817;-87
2023/10/17 00:30:38;;;;;;;;;2.25;2.25;;;;;8.18;62.56;100766.44;5103865;27;45357;-85
2023/10/17 00:33:09;;;;;;;;;2.25;2.25;;;;;7.86;62.28;100706.06;5101556;27;47128;-86
2023/10/17 00:35:39;;;;;;;;;5.00;3.00;;;;;8.02;63.66;100741.56;5094315;27;45999;-86
2023/10/17 00:38:07;;;;;;;;;4.00;4.00;;;;;8.06;63.59;100756.38;5097558;27;45248;-86
2023/10/17 00:43:14;;;;;;;;;3.00;3.00;;;;;7.79;63.69;100710.75;5081748;27;46049;-87
2023/10/17 00:45:40;;;;;;;;;5.50;3.00;;;;;7.83;63.70;100711.50;5085229;27;45613;-86
2023/10/17 00:48:18;;;;;;;;;5.75;3.00;;;;;7.67;64.50;100700.69;5082100;27;45429;-86
2023/10/17 00:50:45;;;;;;;;;6.50;3.75;;;;;7.90;64.16;100726.19;5085248;28;45501;-87
2023/10/17 00:53:11;;;;;;;;;3.50;2.25;;;;;7.90;63.88;100726.19;5087620;27;46844;-86
2023/10/17 00:55:38;;;;;;;;;3.50;3.00;;;;;7.58;64.96;100666.69;5100371;27;45304;-87
2023/10/17 00:58:06;;;;;;;;;3.00;3.00;;;;;7.58;64.42;100677.28;5098499;27;45483;-86
2023/10/17 01:00:36;;;;;;;;;3.00;3.00;;;;;7.61;64.36;100675.34;5100686;27;45386;-85
2023/10/17 01:03:10;;;;;;;;;2.00;2.00;;;;;7.82;64.55;100700.06;5098536;27;47307;-86
2023/10/17 01:06:13;;;;;;;;;2.00;2.00;;;;;7.60;65.00;100667.47;5097525;27;45372;-85
2023/10/17 01:08:39;;;;;;;;;2.00;2.00;;;;;7.67;64.85;100696.25;5109870;27;46119;-86
2023/10/17 01:11:10;;;;;;;;;7.75;5.00;;;;;7.45;64.66;100657.53;5081249;27;45682;-87
2023/10/17 01:13:39;;;;;;;;;3.00;2.25;;;;;7.77;64.99;100712.59;5080711;27;45247;-88
2023/10/17 01:16:10;;;;;;;;;6.25;5.25;;;;;7.53;64.29;100666.84;5098358;27;45341;-86
2023/10/17 01:18:36;;;;;;;;;3.75;3.75;;;;;7.56;64.22;100669.41;5099716;27;45312;-86
2023/10/17 01:21:03;;;;;;;;;6.00;6.00;;;;;7.45;64.25;100658.41;5100102;27;44886;-88
2023/10/17 01:23:29;;;;;;;;;12.75;6.75;;;;;7.64;63.87;100671.69;5099244;27;46180;-87
2023/10/17 01:25:56;;;;;;;;;7.25;5.75;;;;;7.51;64.05;100651.97;5115157;27;45389;-86
2023/10/17 01:28:22;;;;;;;;;8.00;5.00;;;;;7.67;64.39;100690.09;5097905;27;45458;-87
2023/10/17 01:30:48;;;;;;;;;3.00;3.00;;;;;7.78;64.25;100702.88;5101079;27;45355;-86
2023/10/17 01:33:13;;;;;;;;;8.75;5.25;;;;;7.26;64.05;100609.81;5101833;27;45350;-87
2023/10/17 01:35:43;;;;;;;;;7.75;5.75;;;;;7.30;63.56;100616.72;5098330;27;45342;-86
2023/10/17 01:38:09;;;;;;;;;7.25;6.75;;;;;7.38;64.63;100630.47;5099807;27;45329;-85
2023/10/17 01:40:37;;;;;;;;;7.00;4.75;;;;;7.50;64.04;100672.28;5095774;27;45353;-85
2023/10/17 01:43:03;;;;;;;;;5.25;5.00;;;;;7.59;63.74;100687.78;5079457;28;47242;-88
2023/10/17 01:45:30;;;;;;;;;4.75;4.75;;;;;7.48;64.40;100670.63;5081249;27;45424;-86
2023/10/17 01:47:55;;;;;;;;;6.50;5.00;;;;;7.52;64.59;100662.50;5093303;27;45449;-86
2023/10/17 01:50:24;;;;;;;;;5.00;3.00;;;;;7.62;64.96;100687.66;5080489;28;45319;-85
2023/10/17 01:52:52;;;;;;;;;3.00;3.00;;;;;7.68;64.69;100700.66;5081648;28;47340;-87
2023/10/17 01:55:18;;;;;;;;;7.00;3.00;;;;;7.19;65.21;100632.16;5083873;27;45325;-85
2023/10/17 01:57:44;;;;;;;;;2.25;2.25;;;;;7.53;64.90;100703.03;5098821;27;45427;-87
2023/10/17 02:03:12;;;;;;;;;2.00;2.00;;;;;7.38;64.77;100678.09;5071961;28;46127;-87
2023/10/17 02:05:38;;;;;;;;;3.00;3.00;;;;;7.54;65.08;100724.16;5090628;27;47162;-87
2023/10/17 02:08:05;;;;;;;;;6.00;5.00;;;;;7.29;65.38;100673.16;5098164;27;45372;-87
2023/10/17 02:10:31;;;;;;;;;6.00;4.00;;;;;7.01;65.80;100631.97;5103687;27;45232;-87
2023/10/17 02:12:57;;;;;;;;;2.50;2.50;;;;;7.43;65.86;100717.59;5102164;27;46190;-87
2023/10/17 02:15:23;;;;;;;;;4.00;3.00;;;;;7.14;66.19;100674.66;5092033;27;45564;-88
2023/10/17 02:17:53;;;;;;;;;5.50;3.00;;;;;7.16;66.42;100669.31;5081136;27;45188;-87
2023/10/17 02:22:54;;;;;;;;;5.50;5.25;;;;;6.94;67.17;100640.25;5085568;27;46305;-87
2023/10/17 02:25:28;;;;;;;;;5.25;5.25;;;;;6.95;65.94;100642.81;5092850;27;45429;-86
2023/10/17 02:27:53;;;;;;;;;4.00;4.00;;;;;7.06;66.53;100666.19;5091297;27;45528;-85
2023/10/17 02:30:20;;;;;;;;;4.50;3.00;;;;;7.29;66.76;100707.56;5102122;27;44919;-86
2023/10/17 02:32:53;;;;;;;;;2.75;2.75;;;;;6.88;66.72;100636.03;5096463;27;45549;-87
2023/10/17 02:35:20;;;;;;;;;2.75;2.75;;;;;7.04;65.99;100663.63;5094424;27;44822;-85
2023/10/17 02:37:47;;;;;;;;;5.75;3.00;;;;;6.78;66.47;100617.06;5100786;27;44728;-87
2023/10/17 02:40:23;;;;;;;;;2.00;2.00;;;;;7.19;66.44;100698.28;5101051;27;45465;-86
2023/10/17 02:42:49;;;;;;;;;2.25;2.25;;;;;7.26;66.43;100692.69;5089793;27;45235;-88
2023/10/17 02:45:27;;;;;;;;;3.00;3.00;;;;;6.99;66.46;100662.91;5078733;27;45238;-86
2023/10/17 02:47:57;;;;;;;;;4.00;4.00;;;;;7.23;66.69;100700.75;5087366;27;45340;-87
2023/10/17 02:52:58;;;;;;;;;6.75;5.00;;;;;7.23;66.52;100707.81;5088257;27;45717;-86
2023/10/17 02:55:28;;;;;;;;;3.75;3.50;;;;;6.92;67.43;100653.53;5087820;27;45149;-86
2023/10/17 02:57:54;;;;;;;;;5.00;5.00;;;;;6.85;67.42;100652.03;5083290;27;45238;-86
2023/10/17 03:00:23;;;;;;;;;4.50;4.50;;;;;6.75;67.95;100659.47;5079118;27;45396;-86
2023/10/17 03:02:51;;;;;;;;;2.25;2.25;;;;;6.90;67.50;100665.94;5076359;28;47356;-86
2023/10/17 03:05:18;;;;;;;;;5.25;5.00;;;;;6.78;67.82;100655.88;5077161;27;45570;-86
2023/10/17 03:07:43;;;;;;;;;7.00;5.00;;;;;7.01;68.16;100698.09;5091186;27;45365;-87
2023/10/17 03:10:09;;;;;;;;;4.75;2.75;;;;;6.44;68.13;100609.59;5101744;27;45487;-85
2023/10/17 03:12:50;;;;;;;;;8.50;6.00;;;;;6.95;68.31;100690.41;5102413;27;45461;-86
2023/10/17 03:17:40;;;;;;;;;9.75;5.00;;;;;6.76;68.66;100665.59;5081847;27;45803;-87
2023/10/17 03:20:09;;;;;;;;;3.50;3.50;;;;;6.59;68.36;100639.00;5104562;27;45251;-87
2023/10/17 03:22:34;;;;;;;;;8.00;6.50;;;;;6.61;69.53;100643.28;5101238;27;45527;-86
2023/10/17 03:25:18;;;;;;;;;2.00;2.00;;;;;6.47;68.93;100620.03;5090030;27;45859;-87
2023/10/17 03:27:55;;;;;;;;;7.50;4.00;;;;;6.78;69.16;100687.59;5080008;28;45456;-85
2023/10/17 03:30:20;;;;;;;;;5.75;5.75;;;;;6.39;69.37;100616.84;5102286;27;45330;-86
2023/10/17 03:35:25;;;;;;;;;5.75;5.75;;;;;6.65;69.56;100662.53;5091409;27;45267;-85
2023/10/17 03:37:53;;;;;;;;;5.75;3.50;;;;;6.41;69.65;100632.63;5099771;27;45235;-86
2023/10/17 03:40:29;;;;;;;;;3.00;3.00;;;;;6.48;69.78;100652.59;5101254;27;45255;-87
2023/10/17 03:42:55;;;;;;;;;4.75;4.75;;;;;6.71;69.32;100676.38;5100023;27;48362;-85
2023/10/17 03:47:53;;;;;;;;;2.75;2.00;;;;;6.65;69.89;100678.41;5102100;27;45284;-86
2023/10/17 03:50:31;;;;;;;;;5.50;5.00;;;;;6.61;68.89;100655.63;5099961;27;45413;-85
2023/10/17 03:53:05;;;;;;;;;6.00;6.00;;;;;6.67;69.48;100680.06;5098160;27;45586;-87
2023/10/17 03:55:31;;;;;;;;;7.75;6.00;;;;;6.28;68.94;100612.91;5098007;27;45267;-86
2023/10/17 03:57:59;;;;;;;;;8.25;6.25;;;;;6.31;69.79;100608.34;5097798;27;45424;-85
2023/10/17 04:00:25;;;;;;;;;9.00;6.50;;;;;6.68;69.80;100670.34;5081269;27;45318;-87
2023/10/17 04:02:51;;;;;;;;;11.25;5.50;;;;;6.60;69.47;100651.28;5079398;28;46817;-85
2023/10/17 04:05:17;;;;;;;;;5.75;5.75;;;;;6.58;69.32;100658.41;5079276;27;45555;-88
2023/10/17 04:07:48;;;;;;;;;8.50;6.50;;;;;6.61;69.93;100664.44;5081417;28;45345;-87
2023/10/17 04:12:49;;;;;;;;;5.25;5.25;;;;;6.43;69.61;100644.88;5089489;27;46323;-87
2023/10/17 04:15:18;;;;;;;;;5.00;5.00;;;;;6.70;69.67;100687.00;5099097;27;45311;-86
2023/10/17 04:17:46;;;;;;;;;7.00;7.00;;;;;6.38;69.38;100633.63;5082076;27;44954;-87
2023/10/17 04:20:11;;;;;;;;;5.25;5.00;;;;;6.73;69.60;100678.94;5080324;28;45392;-86
2023/10/17 04:22:43;;;;;;;;;5.25;4.50;;;;;6.57;69.26;100661.97;5080035;27;48321;-87
2023/10/17 04:25:32;;;;;;;;;6.25;6.25;;;;;6.65;69.25;100667.84;5090941;27;45359;-87
2023/10/17 04:28:00;;;;;;;;;5.75;5.50;;;;;6.63;69.31;100665.22;5081565;27;45181;-86
2023/10/17 04:30:35;;;;;;;;;18.25;12.25;;;;;6.38;69.81;100630.97;5079184;28;45350;-86
2023/10/17 04:33:12;;;;;;;;;6.50;6.25;;;;;6.51;69.89;100657.78;5080315;28;46609;-87
2023/10/17 04:35:47;;;;;;;;;9.50;9.25;;;;;6.28;70.09;100634.88;5089056;27;45479;-87
2023/10/17 04:38:26;;;;;;;;;7.00;6.75;;;;;6.24;70.68;100633.25;5085680;27;45342;-87
2023/10/17 04:43:45;;;;;;;;;7.00;5.50;;;;;6.56;70.17;100694.59;5080346;27;45239;-86
2023/10/17 04:46:11;;;;;;;;;9.00;8.75;;;;;6.55;70.59;100680.53;5096868;27;45579;-86
2023/10/17 04:48:40;;;;;;;;;12.25;8.25;;;;;6.33;70.51;100643.47;5100566;27;45275;-87
2023/10/17 04:51:20;;;;;;;;;10.75;8.25;;;;;6.53;70.19;100665.66;5101488;27;45235;-86
2023/10/17 04:53:49;;;;;;;;;4.50;4.50;;;;;6.35;70.40;100636.34;5099734;27;47852;-86
2023/10/17 04:56:22;;;;;;;;;9.00;9.00;;;;;6.54;69.93;100672.66;5101943;27;45279;-87
2023/10/17 04:58:53;;;;;;;;;9.00;6.00;;;;;6.51;70.16;100663.06;5104103;27;44669;-87
2023/10/17 05:01:39;;;;;;;;;5.50;5.50;;;;;6.38;70.46;100646.84;5092019;27;45511;-87
2023/10/17 06:17:53;;;;;;;;;12.00;8.50;;;;;6.42;70.88;100695.13;5089936;27;45498;-80
2023/10/17 06:20:43;;;;;;;;;11.00;10.00;;;;;6.45;69.95;100687.94;5081687;27;45230;-83
2023/10/17 06:28:28;;;;;;;;;7.00;7.00;;;;;6.12;69.50;100607.31;5077558;28;45510;-82
2023/10/17 06:33:37;;;;;;;;;7.25;7.25;;;;;6.57;69.98;100670.75;5077432;28;45373;-83
2023/10/17 06:36:14;;;;;;;;;9.00;7.00;;;;;6.54;70.31;100667.38;5077261;28;46193;-83
2023/10/17 06:38:46;;;;;;;;;5.75;5.75;;;;;6.57;69.31;100678.69;5077529;28;45346;-83
2023/10/17 06:41:27;;;;;;;;;6.50;6.50;;;;;6.64;69.83;100681.94;5079754;27;46352;-83
2023/10/17 06:43:58;;;;;;;;;9.25;7.25;;;;;6.68;68.84;100678.28;5080205;28;45352;-82
2023/10/17 06:46:36;;;;;;;;;15.00;8.50;;;;;6.61;69.56;100658.28;5080040;27;45446;-82
2023/10/17 06:49:08;;;;;;;;;11.00;9.75;;;;;6.74;69.53;100692.09;5081688;27;45404;-81
2023/10/17 06:51:36;;;;;;;;;8.00;8.00;;;;;6.79;69.67;100686.66;5082091;28;47300;-82
2023/10/17 06:54:13;;;;;;;;;7.50;7.50;;;;;6.66;68.98;100658.97;5080937;28;45367;-84
2023/10/17 06:56:44;;;;;;;;;6.75;6.75;;;;;6.79;68.50;100662.88;5082188;28;45327;-82
2023/10/17 06:59:24;;;;;;;;;7.75;7.75;;;;;6.85;69.00;100670.53;5083640;27;45313;-83
2023/10/17 07:02:14;;;;;;;;;9.75;7.00;;;;;6.88;68.10;100680.13;5082277;28;45470;-83
2023/10/17 07:04:42;;;;;;;;;11.00;10.00;;;;;6.85;68.71;100661.75;5082823;27;45452;-82
2023/10/17 07:07:09;;;;;;;;;7.75;7.75;;;;;6.96;68.66;100683.34;5081191;28;45258;-83
2023/10/17 07:09:38;;;;;;;;;10.25;9.25;;;;;6.90;69.04;100668.59;5084552;27;45355;-83
2023/10/17 07:12:13;;;;;;;;;9.50;7.00;;;;;7.12;68.55;100670.34;5084644;27;45404;-81
2023/10/17 07:14:40;;;;;;;;;11.00;8.25;;;;;7.25;67.66;100676.88;5085105;27;45336;-81
2023/10/17 07:17:25;;;;;;;;;8.25;8.25;;;;;7.19;67.53;100653.34;5082817;28;45315;-80
2023/10/17 07:19:58;;;;;;;;;15.25;11.00;;;;;7.45;67.33;100676.91;5085664;27;45273;-82
2023/10/17 07:22:24;;;;;;;;;12.50;10.25;;;;;7.50;67.03;100680.22;5083717;27;45468;-81
2023/10/17 07:24:50;;;;;;;;;15.25;11.00;;;;;7.48;66.97;100668.84;5081904;28;45333;-80
2023/10/17 07:27:33;;;;;;;;;12.25;10.00;;;;;7.50;67.08;100656.41;5081046;27;45334;-83
2023/10/17 07:29:59;;;;;;;;;16.50;11.75;;;;;7.69;66.16;100675.88;5081475;27;45310;-83
2023/10/17 07:32:25;;;;;;;;;8.25;8.25;;;;;7.54;65.89;100654.47;5081497;28;45397;-83
2023/10/17 07:34:52;;;;;;;;;12.75;11.25;;;;;7.70;65.76;100674.09;5081477;28;45307;-84
2023/10/17 07:42:31;;;;;;;;;15.50;11.25;;;;;8.05;65.31;100675.19;5082368;28;45377;-81
2023/10/17 07:45:01;;;;;;;;;10.50;8.00;;;;;8.02;64.51;100659.44;5082228;27;45253;-81
2023/10/17 07:47:35;;;;;;;;;9.75;8.00;;;;;7.93;64.24;100633.38;5080216;28;45258;-83
2023/10/17 07:50:01;;;;;;;;;14.50;12.00;;;;;8.23;64.09;100679.69;5079937;28;45443;-81
2023/10/17 07:52:30;;;;;;;;;17.50;15.00;;;;;8.21;64.28;100670.97;5078902;28;46341;-83
2023/10/17 07:55:17;;;;;;;;;7.25;7.25;;;;;8.33;63.69;100679.25;5079048;27;45385;-80
2023/10/17 07:57:44;;;;;;;;;14.50;10.25;;;;;8.38;63.73;100675.50;5078582;27;45357;-80
2023/10/17 08:03:00;;;;;;;;;7.75;7.25;;;;;8.31;63.39;100646.66;5080331;27;45775;-82
2023/10/17 08:05:27;;;;;;;;;11.00;9.25;;;;;8.42;63.53;100652.38;5079249;28;45219;-82
2023/10/17 08:08:04;;;;;;;;;8.00;8.00;;;;;8.34;62.99;100631.53;5078752;28;45421;-82
2023/10/17 08:10:33;;;;;;;;;12.50;11.25;;;;;8.66;62.46;100676.88;5077124;28;45354;-82
2023/10/17 08:12:58;;;;;;;;;12.00;11.25;;;;;8.44;62.71;100619.56;5076939;28;46268;-83
2023/10/17 08:15:32;;;;;;;;;10.75;8.75;;;;;8.52;62.57;100638.63;5079474;28;45234;-83
2023/10/17 08:17:58;;;;;;;;;10.50;10.50;;;;;8.70;62.83;100676.66;5079940;27;45247;-83
2023/10/17 08:20:45;;;;;;;;;13.00;12.25;;;;;8.70;62.58;100666.06;5079863;28;45562;-83
2023/10/17 08:23:11;;;;;;;;;11.75;11.00;;;;;8.73;62.46;100655.34;5081503;27;45346;-83
2023/10/17 08:25:52;;;;;;;;;14.75;12.25;;;;;8.65;62.35;100638.91;5082962;28;45262;-81
2023/10/17 08:28:46;;;;;;;;;10.75;9.00;;;;;8.68;62.16;100633.47;5080870;27;45239;-83
2023/10/17 08:33:50;;;;;;;;;12.25;12.25;;;;;9.07;61.56;100661.66;5079400;27;46159;-86
2023/10/17 08:36:16;;;;;;;;;12.50;8.75;;;;;9.16;62.30;100661.22;5077894;27;45236;-81
2023/10/17 08:38:41;;;;;;;;;16.50;11.00;;;;;9.23;62.00;100673.22;5076509;27;45424;-81
2023/10/17 08:41:07;;;;;;;;;14.00;13.00;;;;;9.27;61.46;100661.53;5077918;27;45536;-82
2023/10/17 08:43:35;;;;;;;;;13.00;11.75;;;;;9.38;61.02;100661.88;5077617;28;45871;-81
2023/10/17 08:46:06;;;;;;;;;15.50;12.50;;;;;9.42;61.18;100655.47;5076827;28;45504;-81
2023/10/17 08:48:33;;;;;;;;;13.50;12.00;;;;;9.49;60.92;100649.84;5078306;28;45270;-82
2023/10/17 08:51:00;;;;;;;;;17.75;15.00;;;;;9.43;60.89;100635.09;5077885;27;45321;-82
2023/10/17 08:53:26;;;;;;;;;12.25;12.25;;;;;9.50;60.44;100628.50;5077660;27;46134;-80
2023/10/17 08:55:52;;;;;;;;;12.25;11.50;;;;;9.56;60.83;100625.56;5077986;28;45377;-81
2023/10/17 08:58:23;;;;;;;;;12.50;12.50;;;;;9.63;60.47;100626.09;5076730;28;45374;-80
2023/10/17 09:00:49;;;;;;;;;20.25;13.00;;;;;9.80;60.22;100643.84;5077867;28;45330;-81
2023/10/17 09:03:35;;;;;;;;;10.00;8.50;;;;;9.86;59.11;100647.00;5077487;27;45459;-81
2023/10/17 09:08:55;;;;;;;;;10.75;7.50;;;;;9.85;59.75;100620.53;5066343;27;45493;-82
2023/10/17 09:11:31;;;;;;;;;14.00;10.25;;;;;10.10;59.83;100649.31;5080596;28;45415;-80
2023/10/17 09:14:16;;;;;;;;;12.00;11.50;;;;;10.12;59.81;100631.50;5083523;27;45515;-82
2023/10/17 09:16:50;;;;;;;;;12.50;10.75;;;;;10.15;58.68;100615.38;5080582;28;45432;-81
2023/10/17 09:19:16;;;;;;;;;10.00;9.75;;;;;10.33;59.05;100641.00;5079182;27;45545;-82
2023/10/17 09:21:46;;;;;;;;;11.50;9.50;;;;;10.34;58.33;100626.78;5078447;27;45387;-84
2023/10/17 09:24:29;;;;;;;;;20.25;17.25;;;;;10.27;59.30;100618.25;5078083;27;46087;-81
2023/10/17 09:26:56;;;;;;;;;14.75;12.75;;;;;10.41;58.76;100637.91;5076597;28;45284;-81
2023/10/17 09:29:22;;;;;;;;;11.25;11.00;;;;;10.25;59.09;100596.22;5076261;28;45235;-81
2023/10/17 09:31:47;;;;;;;;;10.25;9.00;;;;;10.58;58.57;100635.22;5078638;28;45482;-83
2023/10/17 09:34:13;;;;;;;;;13.75;11.25;;;;;10.62;58.42;100642.06;5080633;28;46449;-83
2023/10/17 09:36:42;;;;;;;;;12.50;10.00;;;;;10.38;57.94;100569.81;5082817;28;45332;-84
2023/10/17 09:39:14;;;;;;;;;12.50;10.50;;;;;10.79;58.22;100627.81;5083172;27;45272;-83
2023/10/17 09:41:40;;;;;;;;;10.50;10.50;;;;;10.91;58.04;100629.78;5081981;28;45396;-86
2023/10/17 09:44:10;;;;;;;;;11.25;10.00;;;;;10.77;58.04;100593.31;5082092;27;46424;-86
2023/10/17 09:46:38;;;;;;;;;12.75;11.25;;;;;10.92;57.58;100592.44;5085287;27;45341;-83
2023/10/17 09:49:05;;;;;;;;;13.75;13.75;;;;;11.08;57.74;100597.78;5084354;28;45277;-82
2023/10/17 09:51:35;;;;;;;;;18.75;15.75;;;;;11.34;56.86;100624.69;5085215;27;45335;-86
2023/10/17 09:54:01;;;;;;;;;17.50;15.00;;;;;11.41;57.00;100602.03;5083102;27;46564;-85
2023/10/17 09:56:33;;;;;;;;;16.50;14.75;;;;;11.47;56.44;100604.38;5082702;27;45337;-88
2023/10/17 09:59:11;;;;;;;;;16.00;15.00;;;;;11.58;56.10;100598.38;5082729;27;45358;-83
2023/10/17 10:01:39;;;;;;;;;10.25;10.25;;;;;11.71;56.04;100597.53;5082497;28;45346;-82
2023/10/17 10:04:07;;;;;;;;;15.00;12.75;;;;;11.96;55.58;100622.72;5082018;27;45441;-88
2023/10/17 10:06:34;;;;;;;;;11.25;11.25;;;;;12.09;55.33;100607.69;5081123;27;45762;-84
2023/10/17 10:09:14;;;;;;;;;10.25;10.25;;;;;12.23;55.10;100612.16;5080998;28;44876;-88
2023/10/17 10:11:49;;;;;;;;;14.75;12.75;;;;;12.40;54.82;100606.63;5080944;28;45362;-83
2023/10/17 10:14:15;;;;;;;;;12.25;10.25;;;;;12.56;54.88;100602.03;5091484;28;44965;-82
2023/10/17 10:16:56;;;;;;;;;13.50;10.25;;;;;12.83;53.66;100603.88;5099049;27;44782;-81
2023/10/17 10:19:21;;;;;;;;;12.25;11.00;;;;;12.88;53.96;100573.25;5083813;28;45282;-81
2023/10/17 10:21:58;;;;;;;;;10.25;10.25;;;;;13.30;53.13;100603.44;5080284;28;45319;-81
2023/10/17 10:24:45;;;;;;;;;15.25;13.50;;;;;13.67;52.31;100600.91;5080489;28;46714;-82
2023/10/17 10:27:10;;;;;;;;;11.75;8.00;;;;;14.02;52.06;100601.16;5080074;28;45498;-82
2023/10/17 10:29:36;;;;;;;;;11.75;11.75;;;;;14.05;51.52;100550.97;5082390;27;45337;-85
2023/10/17 10:32:07;;;;;;;;;13.50;13.50;;;;;14.39;49.89;100568.16;5081994;28;45370;-81
2023/10/17 10:34:36;;;;;;;;;14.67;13.00;;;;;14.58;49.60;100567.69;5082930;28;46160;-82
2023/10/17 10:37:07;;;;;;;;;12.50;11.50;;;;;14.83;48.76;100579.28;5083036;28;45523;-81
2023/10/17 10:39:33;;;;;;;;;12.75;12.00;;;;;15.02;50.27;100560.88;5085489;28;45435;-81
2023/10/17 10:42:05;;;;;;;;;24.75;23.00;;;;;15.35;47.79;100582.44;5082230;28;45555;-81
2023/10/17 10:44:39;;;;;;;;;14.25;13.00;;;;;15.48;48.00;100568.09;5081027;28;46424;-82
2023/10/17 10:47:06;;;;;;;;;18.67;16.33;;;;;15.81;47.07;100573.56;5081866;27;45643;-84
2023/10/17 10:49:31;;;;;;;;;16.33;13.00;;;;;15.85;46.61;100531.28;5081395;27;45303;-84
2023/10/17 10:51:58;;;;;;;;;13.67;13.33;;;;;16.15;47.19;100554.81;5080278;28;45249;-82
2023/10/17 10:54:27;;;;;;;;;13.33;13.33;;;;;16.37;45.37;100570.91;5095519;27;45446;-82
2023/10/17 10:56:52;;;;;;;;;16.33;16.33;;;;;16.44;44.77;100549.78;5079544;28;45327;-82
2023/10/17 10:59:21;;;;;;;;;14.33;12.67;;;;;16.89;44.85;100557.75;5079927;28;45667;-84
2023/10/17 11:01:50;;;;;;;;;22.67;19.00;;;;;17.41;43.14;100559.59;5078357;28;45526;-83
2023/10/17 11:04:16;;;;;;;;;5.33;5.00;;;;;17.68;42.39;100557.28;5079146;27;45420;-81
2023/10/17 11:06:41;;;;;;;;;16.33;15.67;;;;;17.66;42.32;100532.31;5079008;27;45453;-82
2023/10/17 11:09:16;;;;;;;;;13.67;13.33;;;;;17.91;42.87;100540.97;5079258;28;45381;-81
2023/10/17 11:11:46;;;;;;;;;12.67;11.00;;;;;17.86;42.04;100527.94;5079247;27;45337;-82
2023/10/17 11:14:16;;;;;;;;;18.33;15.00;;;;;18.04;42.39;100546.13;5078648;28;46350;-83
2023/10/17 11:16:42;;;;;;;;;12.33;11.33;;;;;18.26;42.36;100549.50;5078887;28;45262;-83
2023/10/17 11:19:19;;;;;;;;;13.00;13.00;;;;;18.44;41.01;100532.69;5084296;27;45406;-85
2023/10/17 11:21:52;;;;;;;;;13.33;12.33;;;;;18.64;41.15;100550.63;5085426;27;45256;-82
2023/10/17 11:24:18;;;;;;;;;10.00;10.00;;;;;18.94;41.33;100540.72;5083476;27;45295;-82
2023/10/17 11:26:44;;;;;;;;;12.33;11.33;;;;;19.24;41.22;100521.72;5081924;27;45282;-81
2023/10/17 11:29:10;;;;;;;;;11.33;11.33;;;;;19.38;39.47;100523.97;5086218;27;45380;-82
2023/10/17 11:31:35;;;;;;;;;12.00;12.00;;;;;19.58;40.29;100526.66;5086788;28;45256;-84
2023/10/17 11:34:12;;;;;;;;;13.67;11.00;;;;;19.62;39.29;100510.03;5083261;28;45203;-82
2023/10/17 11:36:51;;;;;;;;;12.00;12.00;;;;;19.72;39.25;100515.41;5082384;28;45526;-83
2023/10/17 11:39:18;;;;;;;;;14.00;14.00;;;;;19.74;39.41;100492.69;5080092;28;45452;-83
2023/10/17 11:41:46;;;;;;;;;11.67;11.00;;;;;19.57;39.54;100461.06;5079555;28;45637;-84
2023/10/17 11:44:13;;;;;;;;;10.67;10.67;;;;;20.09;39.14;100491.13;5078727;28;46200;-82
2023/10/17 11:46:38;;;;;;;;;10.67;9.00;;;;;20.43;38.55;100477.03;5079113;27;45459;-84
2023/10/17 11:49:30;;;;;;;;;13.00;12.00;;;;;20.83;37.05;100455.84;5078911;28;45389;-83
2023/10/17 11:52:12;;;;;;;;;11.00;11.00;;;;;21.41;36.65;100459.84;5081335;28;45247;-82
2023/10/17 11:55:04;;;;;;;;;19.33;15.00;;;;;21.70;36.01;100451.41;5079883;28;46352;-84
2023/10/17 11:57:31;;;;;;;;;13.67;10.00;;;;;21.92;35.42;100450.00;5078863;28;45396;-82
2023/10/17 12:00:08;;;;;;;;;12.00;12.00;;;;;22.07;35.80;100465.47;5077992;28;45465;-83
2023/10/17 12:02:41;;;;;;;;;14.00;11.00;;;;;22.18;35.41;100461.63;5079966;27;45342;-86
2023/10/17 12:05:12;;;;;;;;;9.67;9.67;;;;;22.63;35.00;100463.09;5080524;27;46052;-84
2023/10/17 12:07:42;;;;;;;;;10.33;10.33;;;;;23.10;34.20;100457.91;5081889;28;45369;-83
2023/10/17 12:10:08;;;;;;;;;10.00;9.67;;;;;23.54;34.06;100452.91;5080742;27;45384;-83
2023/10/17 12:12:34;;;;;;;;;7.00;7.00;;;;;23.98;32.88;100440.78;5083302;28;45544;-88
2023/10/17 12:15:00;;;;;;;;;7.00;7.00;;;;;24.33;31.83;100417.69;5079262;27;46539;-83
2023/10/17 12:17:26;;;;;;;;;10.00;10.00;;;;;25.11;30.56;100441.94;5080508;27;45401;-82
2023/10/17 12:19:52;;;;;;;;;12.33;10.33;;;;;25.33;30.69;100425.75;5080525;28;45389;-85
2023/10/17 12:22:17;;;;;;;;;14.75;13.75;;;;;25.86;29.42;100432.84;5079861;28;45447;-85
2023/10/17 12:24:45;;;;;;;;;7.25;5.75;;;;;25.57;30.28;100436.41;5078725;28;45893;-86
2023/10/17 12:27:12;;;;;;;;;7.00;7.00;;;;;25.15;30.91;100407.06;5078528;28;45441;-81
2023/10/17 12:29:42;;;;;;;;;9.75;8.75;;;;;25.31;30.92;100416.94;5079069;28;45461;-87
2023/10/17 12:32:11;;;;;;;;;7.50;6.75;;;;;24.53;31.63;100407.22;5061609;28;45489;-84
2023/10/17 12:34:39;;;;;;;;;7.00;7.00;;;;;23.73;32.78;100416.44;5077771;28;48256;-86
2023/10/17 12:37:05;;;;;;;;;12.00;8.50;;;;;23.86;32.87;100413.16;5078353;27;45276;-84
2023/10/17 12:39:32;;;;;;;;;7.25;7.25;;;;;24.40;32.18;100391.50;5084300;28;45202;-84
2023/10/17 12:41:57;;;;;;;;;13.75;8.25;;;;;24.92;32.42;100410.63;5083566;28;45494;-84
2023/10/17 12:44:22;;;;;;;;;26.67;24.67;;;;;25.00;31.17;100404.25;5079347;28;45271;-85
2023/10/17 12:46:50;;;;;;;;;11.00;9.33;;;;;24.73;31.69;100385.78;5078659;28;45439;-86
2023/10/17 12:49:16;;;;;;;;;8.50;8.50;;;;;24.78;31.14;100386.09;5079512;27;45307;-87
2023/10/17 12:51:47;;;;;;;;;8.00;7.75;;;;;24.00;32.89;100390.69;5083057;28;45569;-86
2023/10/17 12:54:12;;;;;;;;;7.00;5.50;;;;;23.12;34.53;100400.78;5081871;27;45310;-86
2023/10/17 12:56:37;;;;;;;;;9.25;6.75;;;;;22.46;34.83;100388.22;5084038;28;45456;-90
2023/10/17 12:59:12;;;;;;;;;12.00;10.33;;;;;22.13;36.16;100403.53;5086526;28;45313;-85
2023/10/17 13:01:38;;;;;;;;;6.67;6.67;;;;;21.56;36.68;100368.94;5084617;27;45217;-84
2023/10/17 13:04:03;;;;;;;;;9.33;8.67;;;;;21.11;37.66;100355.69;5082879;27;45532;-86
2023/10/17 13:06:28;;;;;;;;;10.00;8.33;;;;;20.86;38.03;100365.47;5082900;28;45290;-83
2023/10/17 13:08:56;;;;;;;;;10.67;10.67;;;;;20.66;38.91;100393.66;5084061;28;45252;-87
2023/10/17 13:11:26;;;;;;;;;10.00;10.00;;;;;20.35;39.51;100388.63;5083569;28;44902;-85
2023/10/17 13:13:52;;;;;;;;;6.67;5.00;;;;;20.08;39.98;100377.88;5081796;27;46336;-87
2023/10/17 13:16:19;;;;;;;;;9.33;7.33;;;;;19.99;40.64;100383.19;5080282;27;45430;-83
2023/10/17 13:18:50;;;;;;;;;6.67;6.67;;;;;19.81;40.43;100362.56;5080641;27;45429;-82
2023/10/17 13:21:16;;;;;;;;;9.33;8.00;;;;;19.84;40.84;100381.16;5081920;28;45350;-84
2023/10/17 13:23:44;;;;;;;;;7.67;6.00;;;;;19.74;41.33;100373.94;5079861;28;47784;-85
2023/10/17 13:26:15;;;;;;;;;11.00;8.00;;;;;19.65;41.36;100374.00;5079586;28;45310;-85
2023/10/17 13:28:41;;;;;;;;;8.00;8.00;;;;;19.40;41.77;100348.53;5077634;28;45372;-82
2023/10/17 13:31:18;;;;;;;;;8.00;8.00;;;;;19.36;42.26;100353.38;5079989;27;45318;-82
2023/10/17 13:33:45;;;;;;;;;8.00;7.00;;;;;19.30;42.53;100353.97;5079820;27;45461;-83
2023/10/17 13:36:11;;;;;;;;;8.00;6.33;;;;;18.84;42.78;100309.84;5078626;27;45271;-83
2023/10/17 13:38:38;;;;;;;;;10.00;9.00;;;;;19.06;43.16;100354.47;5078823;27;45341;-82